Nereus N — V3TS7 — position and weather

sailwx.info

Track history (hours):
 
Tides and Currents Weather Stations Pressure Air Temp Water Temp Dewpoint Dewpoint Depression Visibility Wind Speed Wind Dir Waves Ship Positions

Nereus N

Last reported at 2017-Oct-17 03:49 UTC. Time now 2017-Oct-17 13:49 UTC.
Position N 45°01' E 030°08'.

Length 32 m; draft 5.3 m.

Type: Tug. MMSI: 312502000.

Date/timePositionNaut miles runAvg speedWind from/ knotsBaromVisibWave heightAir tempDewpointWater temp
2017-Oct-17 03:49N 45°01' E 030°08'3 8.2
2017-Oct-17 03:30N 44°59' E 030°08'4 8.1
2017-Oct-17 03:00N 44°55' E 030°08'4 7.9
2017-Oct-17 02:30N 44°51' E 030°08'4 8.3
2017-Oct-17 02:00N 44°47' E 030°08'4 8.5
2017-Oct-17 01:30N 44°42' E 030°07'5 7.7
2017-Oct-17 00:49N 44°37' E 030°05'3 8.7
2017-Oct-17 00:29N 44°35' E 030°04'6 9.0
2017-Oct-16 23:49N 44°29' E 030°04'3 8.9
2017-Oct-16 23:27N 44°25' E 030°04'4 8.7
2017-Oct-16 23:00N 44°21' E 030°03'4 8.7
2017-Oct-16 22:30N 44°17' E 030°03'4 8.7
2017-Oct-16 22:01N 44°13' E 030°02'4 8.7
2017-Oct-16 21:30N 44°08' E 030°02'4 8.8
2017-Oct-16 21:00N 44°04' E 030°01'4 8.7
2017-Oct-16 20:30N 43°60' E 030°01'4 8.3
2017-Oct-16 20:01N 43°56' E 029°59'4 7.8
2017-Oct-16 19:31N 43°52' E 029°58'4 7.8
2017-Oct-16 19:01N 43°48' E 029°56'4 7.8
2017-Oct-16 18:31N 43°45' E 029°55'4 7.8
2017-Oct-16 18:01N 43°41' E 029°54'4 7.7
2017-Oct-16 17:30N 43°37' E 029°52'4 7.5
2017-Oct-16 17:00N 43°33' E 029°51'163 7.9
2017-Oct-15 20:23N 40°55' E 028°59'3 8.3
2017-Oct-15 20:00N 40°53' E 028°56'  
2017-Oct-13 13:39N 37°37' E 023°46'1 9.1
2017-Oct-13 13:30N 37°37' E 023°45'4 8.8
2017-Oct-13 13:00N 37°41' E 023°41'4 8.8
2017-Oct-13 12:30N 37°45' E 023°39'4 8.6
2017-Oct-13 12:01N 37°49' E 023°37'4 8.6
2017-Oct-13 11:31N 37°53' E 023°36'4 7.7
2017-Oct-13 11:00N 37°57' E 023°36'1 1.8
2017-Oct-13 10:31N 37°57' E 023°37'0 0.0
2017-Oct-13 10:00N 37°57' E 023°37'0 0.0
2017-Oct-13 09:30N 37°57' E 023°37'0 0.0
2017-Oct-13 09:00N 37°57' E 023°37'0 0.0
2017-Oct-13 08:31N 37°57' E 023°37'0 0.0
2017-Oct-13 08:00N 37°57' E 023°37'0 0.0
2017-Oct-13 07:30N 37°57' E 023°37'0 0.0
2017-Oct-13 07:00N 37°57' E 023°37'0 0.0
2017-Oct-13 06:30N 37°57' E 023°37'0 0.0
2017-Oct-13 06:00N 37°57' E 023°37'0 0.0
2017-Oct-13 05:30N 37°57' E 023°37'0 0.0
2017-Oct-12 17:00N 37°57' E 023°37'0 0.0
2017-Oct-12 16:30N 37°57' E 023°37'0 0.0
2017-Oct-12 16:00N 37°57' E 023°37'0 0.0
2017-Oct-12 15:30N 37°57' E 023°37'0 0.0
2017-Oct-12 15:00N 37°57' E 023°37'0 0.0
2017-Oct-12 14:30N 37°57' E 023°37'0 0.0
2017-Oct-12 14:00N 37°57' E 023°37'0 0.0
2017-Oct-12 13:30N 37°57' E 023°37'0 0.0
2017-Oct-12 13:00N 37°57' E 023°37'0 0.0
2017-Oct-12 12:31N 37°57' E 023°37'0 0.0
2017-Oct-12 12:00N 37°57' E 023°37'0 0.0
2017-Oct-12 11:30N 37°57' E 023°37'0 0.0
2017-Oct-12 11:00N 37°57' E 023°37'0 0.0
2017-Oct-12 10:30N 37°57' E 023°37'0 0.0
2017-Oct-12 10:00N 37°57' E 023°37'0 0.0
2017-Oct-12 09:30N 37°57' E 023°37'0 0.0
2017-Oct-12 09:00N 37°57' E 023°37'0 0.0
2017-Oct-12 08:30N 37°57' E 023°37'0 0.0
2017-Oct-12 08:00N 37°57' E 023°37'0 0.0
2017-Oct-12 07:30N 37°57' E 023°37'0 0.0
2017-Oct-12 07:00N 37°57' E 023°37'0 0.0
2017-Oct-12 06:30N 37°57' E 023°37'0 0.0
2017-Oct-12 06:00N 37°57' E 023°37'0 0.0
2017-Oct-11 19:14N 37°57' E 023°37'0 0.0
2017-Oct-11 19:00N 37°57' E 023°37'0 0.0
2017-Oct-11 18:31N 37°57' E 023°37'0 0.0
2017-Oct-11 18:00N 37°57' E 023°37'0 0.0
2017-Oct-11 17:30N 37°57' E 023°37'0 0.0
2017-Oct-11 17:00N 37°57' E 023°37'0 0.0
2017-Oct-11 00:00N 37°57' E 023°37'0 0.0
2017-Oct-10 23:30N 37°57' E 023°37'0 0.0
2017-Oct-10 23:00N 37°57' E 023°37'0 0.0
2017-Oct-10 22:30N 37°57' E 023°37'0 0.0
2017-Oct-10 22:00N 37°57' E 023°37'0 0.0
2017-Oct-10 21:30N 37°57' E 023°37'0 0.0
2017-Oct-10 21:00N 37°57' E 023°37'0 0.0
2017-Oct-10 20:30N 37°57' E 023°37'0 0.0
2017-Oct-10 20:01N 37°57' E 023°37'0 0.0
2017-Oct-10 19:30N 37°57' E 023°37'0 0.0
2017-Oct-10 19:01N 37°57' E 023°37'0 0.0
2017-Oct-10 18:30N 37°57' E 023°37'0 0.0
2017-Oct-10 18:00N 37°57' E 023°37'0 0.0
2017-Oct-10 17:30N 37°57' E 023°37'0 0.0
2017-Oct-10 17:00N 37°57' E 023°37'0 0.0
2017-Oct-10 16:30N 37°57' E 023°37'0 0.0
2017-Oct-10 16:00N 37°57' E 023°37'0 0.0
2017-Oct-10 15:30N 37°57' E 023°37'0 0.0
2017-Oct-10 15:01N 37°57' E 023°37'0 0.0
2017-Oct-10 13:50N 37°57' E 023°37'0 0.0
2017-Oct-10 13:30N 37°57' E 023°37'0 0.0
2017-Oct-10 13:00N 37°57' E 023°37'0 0.0
2017-Oct-10 12:31N 37°57' E 023°37'0 0.0
2017-Oct-10 12:00N 37°57' E 023°37'0 0.0
2017-Oct-10 11:31N 37°57' E 023°37'0 0.0
2017-Oct-10 11:00N 37°57' E 023°37'0 0.0
2017-Oct-10 10:30N 37°57' E 023°37'0 0.0
2017-Oct-10 10:01N 37°57' E 023°37'0 0.0
2017-Oct-10 09:31N 37°57' E 023°37'0 0.0
2017-Oct-10 09:00N 37°57' E 023°37'0 0.0
2017-Oct-10 08:30N 37°57' E 023°37'0 0.0
2017-Oct-10 08:00N 37°57' E 023°37'0 0.0
2017-Oct-10 07:30N 37°57' E 023°37'0 0.0
2017-Oct-10 07:00N 37°57' E 023°37'0 0.0
2017-Oct-10 06:30N 37°57' E 023°37'0 0.0
2017-Oct-10 06:00N 37°57' E 023°37'0 0.0
2017-Oct-10 05:30N 37°57' E 023°37'0 0.0
2017-Oct-09 17:16N 37°57' E 023°37'0 0.0
2017-Oct-09 17:00N 37°57' E 023°37'0 0.0
2017-Oct-09 16:30N 37°57' E 023°37'0 0.0
2017-Oct-09 16:00N 37°57' E 023°37'0 0.0
2017-Oct-09 15:30N 37°57' E 023°37'0 0.0
2017-Oct-09 15:00N 37°57' E 023°37'0 0.0
2017-Oct-09 14:30N 37°57' E 023°37'0 0.0
2017-Oct-09 14:00N 37°57' E 023°37'0 0.0
2017-Oct-09 13:30N 37°57' E 023°37'0 0.0
2017-Oct-09 13:00N 37°57' E 023°37'0 0.0
2017-Oct-09 12:31N 37°57' E 023°37'0 0.0
2017-Oct-09 12:01N 37°57' E 023°37'0 0.0
2017-Oct-09 11:31N 37°57' E 023°37'0 0.0
2017-Oct-09 11:00N 37°57' E 023°37'0 0.0
2017-Oct-09 10:31N 37°57' E 023°37'0 0.0
2017-Oct-09 10:01N 37°57' E 023°37'0 0.0
2017-Oct-09 09:30N 37°57' E 023°37'0 0.0
2017-Oct-09 09:00N 37°57' E 023°37'0 0.0
2017-Oct-09 08:30N 37°57' E 023°37'0 0.0
2017-Oct-09 08:00N 37°57' E 023°37'0 0.0
2017-Oct-09 07:30N 37°57' E 023°37'0 0.0
2017-Oct-09 07:00N 37°57' E 023°37'0 0.0
2017-Oct-09 06:31N 37°57' E 023°37'0 0.0
2017-Oct-09 06:01N 37°57' E 023°37'0 0.0
2017-Oct-08 18:37N 37°57' E 023°37'0 0.0
2017-Oct-08 18:30N 37°57' E 023°37'0 0.0
2017-Oct-08 18:01N 37°57' E 023°37'0 0.0
2017-Oct-08 17:31N 37°57' E 023°37'0 0.0
2017-Oct-08 17:00N 37°57' E 023°37'0 0.0
2017-Oct-08 16:30N 37°57' E 023°37'0 0.0
2017-Oct-08 16:00N 37°57' E 023°37'0 0.0
2017-Oct-08 15:31N 37°57' E 023°37'0 0.0
2017-Oct-08 15:00N 37°57' E 023°37'0 0.0
2017-Oct-08 14:30N 37°57' E 023°37'0 0.0
2017-Oct-08 14:00N 37°57' E 023°37'0 0.0
2017-Oct-08 13:30N 37°57' E 023°37'0 0.0
2017-Oct-08 13:00N 37°57' E 023°37'0 0.0
2017-Oct-08 12:30N 37°57' E 023°37'0 0.0
2017-Oct-08 10:22N 37°57' E 023°37'0 0.0
2017-Oct-08 10:01N 37°57' E 023°37'0 0.0
2017-Oct-08 09:30N 37°57' E 023°37'0 0.0
2017-Oct-08 09:01N 37°57' E 023°37'0 0.0
2017-Oct-08 08:30N 37°57' E 023°37'0 0.0
2017-Oct-08 08:00N 37°57' E 023°37'0 0.0
2017-Oct-08 07:30N 37°57' E 023°37'0 0.0
2017-Oct-08 07:00N 37°57' E 023°37'0 0.0
2017-Oct-07 19:48N 37°57' E 023°37'0 0.0
2017-Oct-07 19:30N 37°57' E 023°37'0 0.0
2017-Oct-07 19:00N 37°57' E 023°37'0 0.0
2017-Oct-07 18:30N 37°57' E 023°37'0 0.0
2017-Oct-07 18:00N 37°57' E 023°37'0 0.0
2017-Oct-07 17:30N 37°57' E 023°37'0 0.0
2017-Oct-07 17:00N 37°57' E 023°37'0 0.0
2017-Oct-07 16:30N 37°57' E 023°37'0 0.0
2017-Oct-07 16:00N 37°57' E 023°37'0 0.0
2017-Oct-07 15:30N 37°57' E 023°37'0 0.0
2017-Oct-07 15:00N 37°57' E 023°37'0 0.0
2017-Oct-07 14:30N 37°57' E 023°37'0 0.0
2017-Oct-07 14:00N 37°57' E 023°37'0 0.0
2017-Oct-07 13:30N 37°57' E 023°37'0 0.0
2017-Oct-07 13:00N 37°57' E 023°37'0 0.0
2017-Oct-07 12:31N 37°57' E 023°37'0 0.0
2017-Oct-07 12:00N 37°57' E 023°37'0 0.0
2017-Oct-07 11:30N 37°57' E 023°37'0 0.0
2017-Oct-07 11:00N 37°57' E 023°37'0 0.0
2017-Oct-07 10:30N 37°57' E 023°37'0 0.0
2017-Oct-07 10:00N 37°57' E 023°37'0 0.0
2017-Oct-07 09:30N 37°57' E 023°37'0 0.0
2017-Oct-07 09:00N 37°57' E 023°37'0 0.0
2017-Oct-07 08:30N 37°57' E 023°37'0 0.0
2017-Oct-07 08:01N 37°57' E 023°37'0 0.0
2017-Oct-07 07:30N 37°57' E 023°37'0 0.0
2017-Oct-07 07:00N 37°57' E 023°37'  
Track history (hours):
 
Tides and Currents Weather Stations Pressure Air Temp Water Temp Dewpoint Dewpoint Depression Visibility Wind Speed Wind Dir Waves Ship Positions

Nereus N

Last reported at 2017-Oct-17 03:49 UTC. Time now 2017-Oct-17 13:49 UTC.
Position N 45°01' E 030°08'.

Length 32 m; draft 5.3 m.

Type: Tug. MMSI: 312502000.

Date/timePositionNaut miles runAvg speedWind from/ knotsBaromVisibWave heightAir tempDewpointWater temp
2017-Oct-17 03:49N 45°01' E 030°08'3 8.2
2017-Oct-17 03:30N 44°59' E 030°08'4 8.1
2017-Oct-17 03:00N 44°55' E 030°08'4 7.9
2017-Oct-17 02:30N 44°51' E 030°08'4 8.3
2017-Oct-17 02:00N 44°47' E 030°08'4 8.5
2017-Oct-17 01:30N 44°42' E 030°07'5 7.7
2017-Oct-17 00:49N 44°37' E 030°05'3 8.7
2017-Oct-17 00:29N 44°35' E 030°04'6 9.0
2017-Oct-16 23:49N 44°29' E 030°04'3 8.9
2017-Oct-16 23:27N 44°25' E 030°04'4 8.7
2017-Oct-16 23:00N 44°21' E 030°03'4 8.7
2017-Oct-16 22:30N 44°17' E 030°03'4 8.7
2017-Oct-16 22:01N 44°13' E 030°02'4 8.7
2017-Oct-16 21:30N 44°08' E 030°02'4 8.8
2017-Oct-16 21:00N 44°04' E 030°01'4 8.7
2017-Oct-16 20:30N 43°60' E 030°01'4 8.3
2017-Oct-16 20:01N 43°56' E 029°59'4 7.8
2017-Oct-16 19:31N 43°52' E 029°58'4 7.8
2017-Oct-16 19:01N 43°48' E 029°56'4 7.8
2017-Oct-16 18:31N 43°45' E 029°55'4 7.8
2017-Oct-16 18:01N 43°41' E 029°54'4 7.7
2017-Oct-16 17:30N 43°37' E 029°52'4 7.5
2017-Oct-16 17:00N 43°33' E 029°51'163 7.9
2017-Oct-15 20:23N 40°55' E 028°59'3 8.3
2017-Oct-15 20:00N 40°53' E 028°56'  
2017-Oct-13 13:39N 37°37' E 023°46'1 9.1
2017-Oct-13 13:30N 37°37' E 023°45'4 8.8
2017-Oct-13 13:00N 37°41' E 023°41'4 8.8
2017-Oct-13 12:30N 37°45' E 023°39'4 8.6
2017-Oct-13 12:01N 37°49' E 023°37'4 8.6
2017-Oct-13 11:31N 37°53' E 023°36'4 7.7
2017-Oct-13 11:00N 37°57' E 023°36'1 1.8
2017-Oct-13 10:31N 37°57' E 023°37'0 0.0
2017-Oct-13 10:00N 37°57' E 023°37'0 0.0
2017-Oct-13 09:30N 37°57' E 023°37'0 0.0
2017-Oct-13 09:00N 37°57' E 023°37'0 0.0
2017-Oct-13 08:31N 37°57' E 023°37'0 0.0
2017-Oct-13 08:00N 37°57' E 023°37'0 0.0
2017-Oct-13 07:30N 37°57' E 023°37'0 0.0
2017-Oct-13 07:00N 37°57' E 023°37'0 0.0
2017-Oct-13 06:30N 37°57' E 023°37'0 0.0
2017-Oct-13 06:00N 37°57' E 023°37'0 0.0
2017-Oct-13 05:30N 37°57' E 023°37'0 0.0
2017-Oct-12 17:00N 37°57' E 023°37'0 0.0
2017-Oct-12 16:30N 37°57' E 023°37'0 0.0
2017-Oct-12 16:00N 37°57' E 023°37'0 0.0
2017-Oct-12 15:30N 37°57' E 023°37'0 0.0
2017-Oct-12 15:00N 37°57' E 023°37'0 0.0
2017-Oct-12 14:30N 37°57' E 023°37'0 0.0
2017-Oct-12 14:00N 37°57' E 023°37'0 0.0
2017-Oct-12 13:30N 37°57' E 023°37'0 0.0
2017-Oct-12 13:00N 37°57' E 023°37'0 0.0
2017-Oct-12 12:31N 37°57' E 023°37'0 0.0
2017-Oct-12 12:00N 37°57' E 023°37'0 0.0
2017-Oct-12 11:30N 37°57' E 023°37'0 0.0
2017-Oct-12 11:00N 37°57' E 023°37'0 0.0
2017-Oct-12 10:30N 37°57' E 023°37'0 0.0
2017-Oct-12 10:00N 37°57' E 023°37'0 0.0
2017-Oct-12 09:30N 37°57' E 023°37'0 0.0
2017-Oct-12 09:00N 37°57' E 023°37'0 0.0
2017-Oct-12 08:30N 37°57' E 023°37'0 0.0
2017-Oct-12 08:00N 37°57' E 023°37'0 0.0
2017-Oct-12 07:30N 37°57' E 023°37'0 0.0
2017-Oct-12 07:00N 37°57' E 023°37'0 0.0
2017-Oct-12 06:30N 37°57' E 023°37'0 0.0
2017-Oct-12 06:00N 37°57' E 023°37'0 0.0
2017-Oct-11 19:14N 37°57' E 023°37'0 0.0
2017-Oct-11 19:00N 37°57' E 023°37'0 0.0
2017-Oct-11 18:31N 37°57' E 023°37'0 0.0
2017-Oct-11 18:00N 37°57' E 023°37'0 0.0
2017-Oct-11 17:30N 37°57' E 023°37'0 0.0
2017-Oct-11 17:00N 37°57' E 023°37'0 0.0
2017-Oct-11 00:00N 37°57' E 023°37'0 0.0
2017-Oct-10 23:30N 37°57' E 023°37'0 0.0
2017-Oct-10 23:00N 37°57' E 023°37'0 0.0
2017-Oct-10 22:30N 37°57' E 023°37'0 0.0
2017-Oct-10 22:00N 37°57' E 023°37'0 0.0
2017-Oct-10 21:30N 37°57' E 023°37'0 0.0
2017-Oct-10 21:00N 37°57' E 023°37'0 0.0
2017-Oct-10 20:30N 37°57' E 023°37'0 0.0
2017-Oct-10 20:01N 37°57' E 023°37'0 0.0
2017-Oct-10 19:30N 37°57' E 023°37'0 0.0
2017-Oct-10 19:01N 37°57' E 023°37'0 0.0
2017-Oct-10 18:30N 37°57' E 023°37'0 0.0
2017-Oct-10 18:00N 37°57' E 023°37'0 0.0
2017-Oct-10 17:30N 37°57' E 023°37'0 0.0
2017-Oct-10 17:00N 37°57' E 023°37'0 0.0
2017-Oct-10 16:30N 37°57' E 023°37'0 0.0
2017-Oct-10 16:00N 37°57' E 023°37'0 0.0
2017-Oct-10 15:30N 37°57' E 023°37'0 0.0
2017-Oct-10 15:01N 37°57' E 023°37'0 0.0
2017-Oct-10 13:50N 37°57' E 023°37'0 0.0
2017-Oct-10 13:30N 37°57' E 023°37'0 0.0
2017-Oct-10 13:00N 37°57' E 023°37'0 0.0
2017-Oct-10 12:31N 37°57' E 023°37'0 0.0
2017-Oct-10 12:00N 37°57' E 023°37'0 0.0
2017-Oct-10 11:31N 37°57' E 023°37'0 0.0
2017-Oct-10 11:00N 37°57' E 023°37'0 0.0
2017-Oct-10 10:30N 37°57' E 023°37'0 0.0
2017-Oct-10 10:01N 37°57' E 023°37'0 0.0
2017-Oct-10 09:31N 37°57' E 023°37'0 0.0
2017-Oct-10 09:00N 37°57' E 023°37'0 0.0
2017-Oct-10 08:30N 37°57' E 023°37'0 0.0
2017-Oct-10 08:00N 37°57' E 023°37'0 0.0
2017-Oct-10 07:30N 37°57' E 023°37'0 0.0
2017-Oct-10 07:00N 37°57' E 023°37'0 0.0
2017-Oct-10 06:30N 37°57' E 023°37'0 0.0
2017-Oct-10 06:00N 37°57' E 023°37'0 0.0
2017-Oct-10 05:30N 37°57' E 023°37'0 0.0
2017-Oct-09 17:16N 37°57' E 023°37'0 0.0
2017-Oct-09 17:00N 37°57' E 023°37'0 0.0
2017-Oct-09 16:30N 37°57' E 023°37'0 0.0
2017-Oct-09 16:00N 37°57' E 023°37'0 0.0
2017-Oct-09 15:30N 37°57' E 023°37'0 0.0
2017-Oct-09 15:00N 37°57' E 023°37'0 0.0
2017-Oct-09 14:30N 37°57' E 023°37'0 0.0
2017-Oct-09 14:00N 37°57' E 023°37'0 0.0
2017-Oct-09 13:30N 37°57' E 023°37'0 0.0
2017-Oct-09 13:00N 37°57' E 023°37'0 0.0
2017-Oct-09 12:31N 37°57' E 023°37'0 0.0
2017-Oct-09 12:01N 37°57' E 023°37'0 0.0
2017-Oct-09 11:31N 37°57' E 023°37'0 0.0
2017-Oct-09 11:00N 37°57' E 023°37'0 0.0
2017-Oct-09 10:31N 37°57' E 023°37'0 0.0
2017-Oct-09 10:01N 37°57' E 023°37'0 0.0
2017-Oct-09 09:30N 37°57' E 023°37'0 0.0
2017-Oct-09 09:00N 37°57' E 023°37'0 0.0
2017-Oct-09 08:30N 37°57' E 023°37'0 0.0
2017-Oct-09 08:00N 37°57' E 023°37'0 0.0
2017-Oct-09 07:30N 37°57' E 023°37'0 0.0
2017-Oct-09 07:00N 37°57' E 023°37'0 0.0
2017-Oct-09 06:31N 37°57' E 023°37'0 0.0
2017-Oct-09 06:01N 37°57' E 023°37'0 0.0
2017-Oct-08 18:37N 37°57' E 023°37'0 0.0
2017-Oct-08 18:30N 37°57' E 023°37'0 0.0
2017-Oct-08 18:01N 37°57' E 023°37'0 0.0
2017-Oct-08 17:31N 37°57' E 023°37'0 0.0
2017-Oct-08 17:00N 37°57' E 023°37'0 0.0
2017-Oct-08 16:30N 37°57' E 023°37'0 0.0
2017-Oct-08 16:00N 37°57' E 023°37'0 0.0
2017-Oct-08 15:31N 37°57' E 023°37'0 0.0
2017-Oct-08 15:00N 37°57' E 023°37'0 0.0
2017-Oct-08 14:30N 37°57' E 023°37'0 0.0
2017-Oct-08 14:00N 37°57' E 023°37'0 0.0
2017-Oct-08 13:30N 37°57' E 023°37'0 0.0
2017-Oct-08 13:00N 37°57' E 023°37'0 0.0
2017-Oct-08 12:30N 37°57' E 023°37'0 0.0
2017-Oct-08 10:22N 37°57' E 023°37'0 0.0
2017-Oct-08 10:01N 37°57' E 023°37'0 0.0
2017-Oct-08 09:30N 37°57' E 023°37'0 0.0
2017-Oct-08 09:01N 37°57' E 023°37'0 0.0
2017-Oct-08 08:30N 37°57' E 023°37'0 0.0
2017-Oct-08 08:00N 37°57' E 023°37'0 0.0
2017-Oct-08 07:30N 37°57' E 023°37'0 0.0
2017-Oct-08 07:00N 37°57' E 023°37'0 0.0
2017-Oct-07 19:48N 37°57' E 023°37'0 0.0
2017-Oct-07 19:30N 37°57' E 023°37'0 0.0
2017-Oct-07 19:00N 37°57' E 023°37'0 0.0
2017-Oct-07 18:30N 37°57' E 023°37'0 0.0
2017-Oct-07 18:00N 37°57' E 023°37'0 0.0
2017-Oct-07 17:30N 37°57' E 023°37'0 0.0
2017-Oct-07 17:00N 37°57' E 023°37'0 0.0
2017-Oct-07 16:30N 37°57' E 023°37'0 0.0
2017-Oct-07 16:00N 37°57' E 023°37'0 0.0
2017-Oct-07 15:30N 37°57' E 023°37'0 0.0
2017-Oct-07 15:00N 37°57' E 023°37'0 0.0
2017-Oct-07 14:30N 37°57' E 023°37'0 0.0
2017-Oct-07 14:00N 37°57' E 023°37'0 0.0
2017-Oct-07 13:30N 37°57' E 023°37'0 0.0
2017-Oct-07 13:00N 37°57' E 023°37'0 0.0
2017-Oct-07 12:31N 37°57' E 023°37'0 0.0
2017-Oct-07 12:00N 37°57' E 023°37'0 0.0
2017-Oct-07 11:30N 37°57' E 023°37'0 0.0
2017-Oct-07 11:00N 37°57' E 023°37'0 0.0
2017-Oct-07 10:30N 37°57' E 023°37'0 0.0
2017-Oct-07 10:00N 37°57' E 023°37'0 0.0
2017-Oct-07 09:30N 37°57' E 023°37'0 0.0
2017-Oct-07 09:00N 37°57' E 023°37'0 0.0
2017-Oct-07 08:30N 37°57' E 023°37'0 0.0
2017-Oct-07 08:01N 37°57' E 023°37'0 0.0
2017-Oct-07 07:30N 37°57' E 023°37'0 0.0
2017-Oct-07 07:00N 37°57' E 023°37'  

Dump ship's entire track history